Ladona, Pennsylvania
Current Conditions -  °F | °C
As of 7:56 PM on Monday 26 Jan 2015 (Local Time) from KELZ Reporting Station
Light Snow Light Snow  
Wind Chill:   Ceiling: 2700
Heat Index: 13°   Visibility: 3mi
Dew Point:   Wind: 6mph
Humidity: 84%   Direction: 60°ENE
Pressure: 29.79"   Gusts: NA
Location:  41.7605°N, 77.9728°W
Report Text: KELZ 270056Z AUTO 06005KT 3SM -SN BR OVC027 M11/M13 A2979 RMK AO2 SLP131 P0001 T11061128
Loading
Personal Weather Stations






























Interactive Weather Map New forecast layout! Learn more

10-Day Weather Forecast

Advertisements
Track Severe Weather on mobile